sensor_id;sensor_type;location;lat;lon;timestamp;temperature;humidity
59855;DHT22;45732;52.850;6.896;2023-06-01T00:00:59;13.50;99.90
59855;DHT22;45732;52.850;6.896;2023-06-01T00:03:27;13.50;99.90
59855;DHT22;45732;52.850;6.896;2023-06-01T00:05:54;13.50;99.90
59855;DHT22;45732;52.850;6.896;2023-06-01T00:08:21;13.40;99.90
59855;DHT22;45732;52.850;6.896;2023-06-01T00:10:48;13.40;99.90
59855;DHT22;45732;52.850;6.896;2023-06-01T00:13:15;13.40;99.90
59855;DHT22;45732;52.850;6.896;2023-06-01T00:15:40;13.40;99.90
59855;DHT22;45732;52.850;6.896;2023-06-01T00:18:06;13.40;99.90
59855;DHT22;45732;52.850;6.896;2023-06-01T00:20:34;13.30;99.90
59855;DHT22;45732;52.850;6.896;2023-06-01T00:23:00;13.40;99.90
59855;DHT22;45732;52.850;6.896;2023-06-01T00:25:27;13.40;99.90
59855;DHT22;45732;52.850;6.896;2023-06-01T00:27:53;13.40;99.90
59855;DHT22;45732;52.850;6.896;2023-06-01T00:30:19;13.40;99.90
59855;DHT22;45732;52.850;6.896;2023-06-01T00:32:45;13.40;99.90
59855;DHT22;45732;52.850;6.896;2023-06-01T00:35:10;13.30;99.90
59855;DHT22;45732;52.850;6.896;2023-06-01T00:37:36;13.30;99.90
59855;DHT22;45732;52.850;6.896;2023-06-01T00:40:02;13.30;99.90
59855;DHT22;45732;52.850;6.896;2023-06-01T00:42:27;13.30;99.90
59855;DHT22;45732;52.850;6.896;2023-06-01T00:44:53;13.30;99.90
59855;DHT22;45732;52.850;6.896;2023-06-01T00:47:19;13.30;99.90
59855;DHT22;45732;52.850;6.896;2023-06-01T00:49:46;13.30;99.90
59855;DHT22;45732;52.850;6.896;2023-06-01T00:52:12;13.20;99.90
59855;DHT22;45732;52.850;6.896;2023-06-01T00:54:39;13.30;99.90
59855;DHT22;45732;52.850;6.896;2023-06-01T00:57:05;13.30;99.90
59855;DHT22;45732;52.850;6.896;2023-06-01T00:59:34;13.30;99.90
59855;DHT22;45732;52.850;6.896;2023-06-01T01:02:00;13.30;99.90
59855;DHT22;45732;52.850;6.896;2023-06-01T01:04:29;13.30;99.90
59855;DHT22;45732;52.850;6.896;2023-06-01T01:07:15;13.20;99.90
59855;DHT22;45732;52.850;6.896;2023-06-01T01:09:58;13.20;99.90
59855;DHT22;45732;52.850;6.896;2023-06-01T01:12:40;13.20;99.90
59855;DHT22;45732;52.850;6.896;2023-06-01T01:15:19;13.20;99.90
59855;DHT22;45732;52.850;6.896;2023-06-01T01:17:48;13.20;99.90
59855;DHT22;45732;52.850;6.896;2023-06-01T01:20:26;13.20;99.90
59855;DHT22;45732;52.850;6.896;2023-06-01T01:25:35;13.10;99.90
59855;DHT22;45732;52.850;6.896;2023-06-01T01:30:32;13.10;99.90
59855;DHT22;45732;52.850;6.896;2023-06-01T01:33:02;13.00;99.90
59855;DHT22;45732;52.850;6.896;2023-06-01T01:35:28;13.10;99.90
59855;DHT22;45732;52.850;6.896;2023-06-01T01:37:54;13.10;99.90
59855;DHT22;45732;52.850;6.896;2023-06-01T01:40:21;13.00;99.90
59855;DHT22;45732;52.850;6.896;2023-06-01T01:42:48;13.10;99.90
59855;DHT22;45732;52.850;6.896;2023-06-01T01:45:14;13.10;99.90
59855;DHT22;45732;52.850;6.896;2023-06-01T01:47:53;13.10;99.90
59855;DHT22;45732;52.850;6.896;2023-06-01T01:50:22;13.20;99.90
59855;DHT22;45732;52.850;6.896;2023-06-01T01:52:51;13.10;99.90
59855;DHT22;45732;52.850;6.896;2023-06-01T01:55:20;13.10;99.90
59855;DHT22;45732;52.850;6.896;2023-06-01T01:57:50;13.10;99.90
59855;DHT22;45732;52.850;6.896;2023-06-01T02:00:17;13.10;99.90
59855;DHT22;45732;52.850;6.896;2023-06-01T02:02:46;13.00;99.90
59855;DHT22;45732;52.850;6.896;2023-06-01T02:05:12;13.10;99.90
59855;DHT22;45732;52.850;6.896;2023-06-01T02:07:37;13.00;99.90
59855;DHT22;45732;52.850;6.896;2023-06-01T02:10:04;13.00;99.90
59855;DHT22;45732;52.850;6.896;2023-06-01T02:12:30;13.10;99.90
59855;DHT22;45732;52.850;6.896;2023-06-01T02:14:55;13.00;99.90
59855;DHT22;45732;52.850;6.896;2023-06-01T02:17:21;13.00;99.90
59855;DHT22;45732;52.850;6.896;2023-06-01T02:19:47;13.00;99.90
59855;DHT22;45732;52.850;6.896;2023-06-01T02:22:13;13.00;99.90
59855;DHT22;45732;52.850;6.896;2023-06-01T02:24:39;13.00;99.90
59855;DHT22;45732;52.850;6.896;2023-06-01T02:27:05;13.00;99.90
59855;DHT22;45732;52.850;6.896;2023-06-01T02:29:31;12.90;99.90
59855;DHT22;45732;52.850;6.896;2023-06-01T02:31:56;12.90;99.90
59855;DHT22;45732;52.850;6.896;2023-06-01T02:34:22;12.90;99.90
59855;DHT22;45732;52.850;6.896;2023-06-01T02:36:48;12.80;99.90
59855;DHT22;45732;52.850;6.896;2023-06-01T02:39:14;12.80;99.90
59855;DHT22;45732;52.850;6.896;2023-06-01T02:41:40;12.90;99.90
59855;DHT22;45732;52.850;6.896;2023-06-01T02:44:05;12.90;99.90
59855;DHT22;45732;52.850;6.896;2023-06-01T02:46:31;12.90;99.90
59855;DHT22;45732;52.850;6.896;2023-06-01T02:48:57;12.90;99.90
59855;DHT22;45732;52.850;6.896;2023-06-01T02:51:23;12.90;99.90
59855;DHT22;45732;52.850;6.896;2023-06-01T02:53:48;12.90;99.90
59855;DHT22;45732;52.850;6.896;2023-06-01T02:56:14;12.90;99.90
59855;DHT22;45732;52.850;6.896;2023-06-01T02:58:40;12.80;99.90
59855;DHT22;45732;52.850;6.896;2023-06-01T03:01:07;12.90;99.90
59855;DHT22;45732;52.850;6.896;2023-06-01T03:03:37;12.90;99.90
59855;DHT22;45732;52.850;6.896;2023-06-01T03:06:04;12.90;99.90
59855;DHT22;45732;52.850;6.896;2023-06-01T03:08:31;12.90;99.90
59855;DHT22;45732;52.850;6.896;2023-06-01T03:10:57;12.80;99.90
59855;DHT22;45732;52.850;6.896;2023-06-01T03:13:23;12.80;99.90
59855;DHT22;45732;52.850;6.896;2023-06-01T03:15:49;12.80;99.90
59855;DHT22;45732;52.850;6.896;2023-06-01T03:18:16;12.80;99.90
59855;DHT22;45732;52.850;6.896;2023-06-01T03:20:42;12.70;99.90
59855;DHT22;45732;52.850;6.896;2023-06-01T03:23:07;12.70;99.90
59855;DHT22;45732;52.850;6.896;2023-06-01T03:25:33;12.70;99.90
59855;DHT22;45732;52.850;6.896;2023-06-01T03:27:59;12.70;99.90
59855;DHT22;45732;52.850;6.896;2023-06-01T03:30:25;12.70;99.90
59855;DHT22;45732;52.850;6.896;2023-06-01T03:32:51;12.70;99.90
59855;DHT22;45732;52.850;6.896;2023-06-01T03:35:16;12.70;99.90
59855;DHT22;45732;52.850;6.896;2023-06-01T03:37:45;12.60;99.90
59855;DHT22;45732;52.850;6.896;2023-06-01T03:40:11;12.60;99.90
59855;DHT22;45732;52.850;6.896;2023-06-01T03:45:04;12.70;99.90
59855;DHT22;45732;52.850;6.896;2023-06-01T03:47:30;12.70;99.90
59855;DHT22;45732;52.850;6.896;2023-06-01T03:49:56;12.60;99.90
59855;DHT22;45732;52.850;6.896;2023-06-01T03:52:27;12.60;99.90
59855;DHT22;45732;52.850;6.896;2023-06-01T03:54:55;12.50;99.90
59855;DHT22;45732;52.850;6.896;2023-06-01T03:57:22;12.60;99.90
59855;DHT22;45732;52.850;6.896;2023-06-01T03:59:48;12.60;99.90
59855;DHT22;45732;52.850;6.896;2023-06-01T04:02:13;12.70;99.90
59855;DHT22;45732;52.850;6.896;2023-06-01T04:04:39;12.60;99.90
59855;DHT22;45732;52.850;6.896;2023-06-01T04:07:07;12.60;99.90
59855;DHT22;45732;52.850;6.896;2023-06-01T04:09:35;12.60;99.90
59855;DHT22;45732;52.850;6.896;2023-06-01T04:12:03;12.60;99.90
59855;DHT22;45732;52.850;6.896;2023-06-01T04:14:29;12.70;99.90
59855;DHT22;45732;52.850;6.896;2023-06-01T04:16:55;12.70;99.90
59855;DHT22;45732;52.850;6.896;2023-06-01T04:19:21;12.70;99.90
59855;DHT22;45732;52.850;6.896;2023-06-01T04:21:47;12.70;99.90
59855;DHT22;45732;52.850;6.896;2023-06-01T04:24:12;12.70;99.90
59855;DHT22;45732;52.850;6.896;2023-06-01T04:26:38;12.70;99.90
59855;DHT22;45732;52.850;6.896;2023-06-01T04:29:04;12.50;99.90
59855;DHT22;45732;52.850;6.896;2023-06-01T04:31:29;12.50;99.90
59855;DHT22;45732;52.850;6.896;2023-06-01T04:33:58;12.60;99.90
59855;DHT22;45732;52.850;6.896;2023-06-01T04:36:28;12.60;99.90
59855;DHT22;45732;52.850;6.896;2023-06-01T04:38:54;12.60;99.90
59855;DHT22;45732;52.850;6.896;2023-06-01T04:41:21;12.50;99.90
59855;DHT22;45732;52.850;6.896;2023-06-01T04:43:54;12.60;99.90
59855;DHT22;45732;52.850;6.896;2023-06-01T04:46:21;12.60;99.90
59855;DHT22;45732;52.850;6.896;2023-06-01T04:48:52;12.60;99.90
59855;DHT22;45732;52.850;6.896;2023-06-01T04:51:18;12.60;99.90
59855;DHT22;45732;52.850;6.896;2023-06-01T04:53:50;12.60;99.90
59855;DHT22;45732;52.850;6.896;2023-06-01T04:56:24;12.60;99.90
59855;DHT22;45732;52.850;6.896;2023-06-01T04:58:52;12.60;99.90
59855;DHT22;45732;52.850;6.896;2023-06-01T05:01:19;12.60;99.90
59855;DHT22;45732;52.850;6.896;2023-06-01T05:03:47;12.60;99.90
59855;DHT22;45732;52.850;6.896;2023-06-01T05:06:13;12.50;99.90
59855;DHT22;45732;52.850;6.896;2023-06-01T05:08:40;12.60;99.90
59855;DHT22;45732;52.850;6.896;2023-06-01T05:11:06;12.60;99.90
59855;DHT22;45732;52.850;6.896;2023-06-01T05:13:36;12.60;99.90
59855;DHT22;45732;52.850;6.896;2023-06-01T05:16:03;12.60;99.90
59855;DHT22;45732;52.850;6.896;2023-06-01T05:18:29;12.60;99.90
59855;DHT22;45732;52.850;6.896;2023-06-01T05:20:55;12.60;99.90
59855;DHT22;45732;52.850;6.896;2023-06-01T05:23:21;12.60;99.90
59855;DHT22;45732;52.850;6.896;2023-06-01T05:25:47;12.60;99.90
59855;DHT22;45732;52.850;6.896;2023-06-01T05:28:12;12.60;99.90
59855;DHT22;45732;52.850;6.896;2023-06-01T05:30:38;12.60;99.90
59855;DHT22;45732;52.850;6.896;2023-06-01T05:33:04;12.50;99.90
59855;DHT22;45732;52.850;6.896;2023-06-01T05:35:30;12.60;99.90
59855;DHT22;45732;52.850;6.896;2023-06-01T05:37:55;12.60;99.90
59855;DHT22;45732;52.850;6.896;2023-06-01T05:40:21;12.60;99.90
59855;DHT22;45732;52.850;6.896;2023-06-01T05:42:47;12.60;99.90
59855;DHT22;45732;52.850;6.896;2023-06-01T05:45:12;12.60;99.90
59855;DHT22;45732;52.850;6.896;2023-06-01T05:47:38;12.60;99.90
59855;DHT22;45732;52.850;6.896;2023-06-01T05:50:04;12.60;99.90
59855;DHT22;45732;52.850;6.896;2023-06-01T05:52:30;12.60;99.90
59855;DHT22;45732;52.850;6.896;2023-06-01T05:54:56;12.60;99.90
59855;DHT22;45732;52.850;6.896;2023-06-01T05:57:23;12.60;99.90
59855;DHT22;45732;52.850;6.896;2023-06-01T05:59:48;12.50;99.90
59855;DHT22;45732;52.850;6.896;2023-06-01T06:02:14;12.50;99.90
59855;DHT22;45732;52.850;6.896;2023-06-01T06:04:41;12.50;99.90
59855;DHT22;45732;52.850;6.896;2023-06-01T06:07:06;12.50;99.90
59855;DHT22;45732;52.850;6.896;2023-06-01T06:09:33;12.50;99.90
59855;DHT22;45732;52.850;6.896;2023-06-01T06:11:59;12.50;99.90
59855;DHT22;45732;52.850;6.896;2023-06-01T06:14:25;12.50;99.90
59855;DHT22;45732;52.850;6.896;2023-06-01T06:16:51;12.50;99.90
59855;DHT22;45732;52.850;6.896;2023-06-01T06:19:16;12.60;99.90
59855;DHT22;45732;52.850;6.896;2023-06-01T06:21:42;12.60;99.90
59855;DHT22;45732;52.850;6.896;2023-06-01T06:24:08;12.60;99.90
59855;DHT22;45732;52.850;6.896;2023-06-01T06:26:34;12.70;99.90
59855;DHT22;45732;52.850;6.896;2023-06-01T06:29:00;12.70;99.90
59855;DHT22;45732;52.850;6.896;2023-06-01T06:31:26;12.70;99.90
59855;DHT22;45732;52.850;6.896;2023-06-01T06:33:52;12.60;99.90
59855;DHT22;45732;52.850;6.896;2023-06-01T06:36:18;12.70;99.90
59855;DHT22;45732;52.850;6.896;2023-06-01T06:38:44;12.70;99.90
59855;DHT22;45732;52.850;6.896;2023-06-01T06:41:10;12.70;99.90
59855;DHT22;45732;52.850;6.896;2023-06-01T06:43:36;12.70;99.90
59855;DHT22;45732;52.850;6.896;2023-06-01T06:46:02;12.70;99.90
59855;DHT22;45732;52.850;6.896;2023-06-01T06:48:28;12.80;99.90
59855;DHT22;45732;52.850;6.896;2023-06-01T06:50:54;12.80;99.90
59855;DHT22;45732;52.850;6.896;2023-06-01T06:53:20;12.80;99.90
59855;DHT22;45732;52.850;6.896;2023-06-01T06:55:46;12.70;99.90
59855;DHT22;45732;52.850;6.896;2023-06-01T06:58:12;12.70;99.90
59855;DHT22;45732;52.850;6.896;2023-06-01T07:00:39;12.70;99.90
59855;DHT22;45732;52.850;6.896;2023-06-01T07:03:05;12.70;99.90
59855;DHT22;45732;52.850;6.896;2023-06-01T07:05:31;12.70;99.90
59855;DHT22;45732;52.850;6.896;2023-06-01T07:07:57;12.70;99.90
59855;DHT22;45732;52.850;6.896;2023-06-01T07:10:23;12.80;99.90
59855;DHT22;45732;52.850;6.896;2023-06-01T07:12:48;12.80;99.90
59855;DHT22;45732;52.850;6.896;2023-06-01T07:15:14;12.80;99.90
59855;DHT22;45732;52.850;6.896;2023-06-01T07:17:41;12.90;99.90
59855;DHT22;45732;52.850;6.896;2023-06-01T07:20:07;12.90;99.90
59855;DHT22;45732;52.850;6.896;2023-06-01T07:22:37;12.80;99.90
59855;DHT22;45732;52.850;6.896;2023-06-01T07:25:04;12.80;99.90
59855;DHT22;45732;52.850;6.896;2023-06-01T07:27:30;12.90;99.90
59855;DHT22;45732;52.850;6.896;2023-06-01T07:29:57;12.90;99.90
59855;DHT22;45732;52.850;6.896;2023-06-01T07:32:23;13.00;99.90
59855;DHT22;45732;52.850;6.896;2023-06-01T07:34:49;13.10;99.90
59855;DHT22;45732;52.850;6.896;2023-06-01T07:37:15;13.00;99.90
59855;DHT22;45732;52.850;6.896;2023-06-01T07:39:41;13.00;99.90
59855;DHT22;45732;52.850;6.896;2023-06-01T07:42:07;13.10;99.90
59855;DHT22;45732;52.850;6.896;2023-06-01T07:44:33;13.10;99.90
59855;DHT22;45732;52.850;6.896;2023-06-01T07:46:58;13.10;99.90
59855;DHT22;45732;52.850;6.896;2023-06-01T07:49:24;12.90;99.90
59855;DHT22;45732;52.850;6.896;2023-06-01T07:51:50;13.00;99.90
59855;DHT22;45732;52.850;6.896;2023-06-01T07:54:17;13.10;99.90
59855;DHT22;45732;52.850;6.896;2023-06-01T07:56:43;13.10;99.90
59855;DHT22;45732;52.850;6.896;2023-06-01T07:59:09;13.30;99.90
59855;DHT22;45732;52.850;6.896;2023-06-01T08:01:36;13.30;99.90
59855;DHT22;45732;52.850;6.896;2023-06-01T08:04:03;13.40;99.90
59855;DHT22;45732;52.850;6.896;2023-06-01T08:06:28;13.50;99.90
59855;DHT22;45732;52.850;6.896;2023-06-01T08:09:04;13.40;99.90
59855;DHT22;45732;52.850;6.896;2023-06-01T08:11:29;13.40;99.90
59855;DHT22;45732;52.850;6.896;2023-06-01T08:13:55;13.40;99.90
59855;DHT22;45732;52.850;6.896;2023-06-01T08:16:21;13.40;99.90
59855;DHT22;45732;52.850;6.896;2023-06-01T08:18:47;13.40;99.90
59855;DHT22;45732;52.850;6.896;2023-06-01T08:21:12;13.40;99.90
59855;DHT22;45732;52.850;6.896;2023-06-01T08:23:38;13.50;99.90
59855;DHT22;45732;52.850;6.896;2023-06-01T08:26:04;13.50;99.90
59855;DHT22;45732;52.850;6.896;2023-06-01T08:28:30;13.50;99.90
59855;DHT22;45732;52.850;6.896;2023-06-01T08:30:57;13.60;99.90
59855;DHT22;45732;52.850;6.896;2023-06-01T08:33:23;13.50;99.90
59855;DHT22;45732;52.850;6.896;2023-06-01T08:35:49;13.50;99.90
59855;DHT22;45732;52.850;6.896;2023-06-01T08:38:14;13.50;99.90
59855;DHT22;45732;52.850;6.896;2023-06-01T08:40:40;13.50;99.90
59855;DHT22;45732;52.850;6.896;2023-06-01T08:43:19;13.50;99.90
59855;DHT22;45732;52.850;6.896;2023-06-01T08:45:45;13.60;99.90
59855;DHT22;45732;52.850;6.896;2023-06-01T08:48:16;13.60;99.90
59855;DHT22;45732;52.850;6.896;2023-06-01T08:50:47;13.60;99.90
59855;DHT22;45732;52.850;6.896;2023-06-01T08:53:16;13.60;99.90
59855;DHT22;45732;52.850;6.896;2023-06-01T08:55:44;13.70;99.90
59855;DHT22;45732;52.850;6.896;2023-06-01T08:58:12;13.60;99.90
59855;DHT22;45732;52.850;6.896;2023-06-01T09:00:38;13.50;99.90
59855;DHT22;45732;52.850;6.896;2023-06-01T09:03:04;13.60;99.90
59855;DHT22;45732;52.850;6.896;2023-06-01T09:05:30;13.60;99.90
59855;DHT22;45732;52.850;6.896;2023-06-01T09:07:55;13.50;99.90
59855;DHT22;45732;52.850;6.896;2023-06-01T09:10:23;13.50;99.90
59855;DHT22;45732;52.850;6.896;2023-06-01T09:12:54;13.50;99.90
59855;DHT22;45732;52.850;6.896;2023-06-01T09:15:21;13.50;99.90
59855;DHT22;45732;52.850;6.896;2023-06-01T09:17:51;13.50;99.90
59855;DHT22;45732;52.850;6.896;2023-06-01T09:22:50;13.50;99.90
59855;DHT22;45732;52.850;6.896;2023-06-01T09:25:16;13.60;99.90
59855;DHT22;45732;52.850;6.896;2023-06-01T09:27:47;13.60;99.90
59855;DHT22;45732;52.850;6.896;2023-06-01T09:30:13;13.70;99.90
59855;DHT22;45732;52.850;6.896;2023-06-01T09:32:39;13.70;99.90
59855;DHT22;45732;52.850;6.896;2023-06-01T09:35:06;13.80;99.90
59855;DHT22;45732;52.850;6.896;2023-06-01T09:37:34;13.80;99.90
59855;DHT22;45732;52.850;6.896;2023-06-01T09:40:00;13.90;99.90
59855;DHT22;45732;52.850;6.896;2023-06-01T09:42:35;13.90;99.90
59855;DHT22;45732;52.850;6.896;2023-06-01T09:45:13;13.90;99.90
59855;DHT22;45732;52.850;6.896;2023-06-01T09:47:39;13.90;99.90
59855;DHT22;45732;52.850;6.896;2023-06-01T09:50:05;14.00;99.90
59855;DHT22;45732;52.850;6.896;2023-06-01T09:52:31;13.90;99.90
59855;DHT22;45732;52.850;6.896;2023-06-01T09:55:05;14.00;99.90
59855;DHT22;45732;52.850;6.896;2023-06-01T09:57:33;14.00;99.90
59855;DHT22;45732;52.850;6.896;2023-06-01T10:00:01;14.00;99.90
59855;DHT22;45732;52.850;6.896;2023-06-01T10:02:29;14.00;99.90
59855;DHT22;45732;52.850;6.896;2023-06-01T10:04:57;14.10;99.90
59855;DHT22;45732;52.850;6.896;2023-06-01T10:07:26;14.00;99.90
59855;DHT22;45732;52.850;6.896;2023-06-01T10:09:57;14.00;99.90
59855;DHT22;45732;52.850;6.896;2023-06-01T10:12:27;14.00;99.90
59855;DHT22;45732;52.850;6.896;2023-06-01T10:14:55;14.00;99.90
59855;DHT22;45732;52.850;6.896;2023-06-01T10:17:21;13.90;99.90
59855;DHT22;45732;52.850;6.896;2023-06-01T10:19:48;13.90;99.90
59855;DHT22;45732;52.850;6.896;2023-06-01T10:22:14;13.90;99.90
59855;DHT22;45732;52.850;6.896;2023-06-01T10:24:40;13.80;99.90
59855;DHT22;45732;52.850;6.896;2023-06-01T10:27:19;13.90;99.90
59855;DHT22;45732;52.850;6.896;2023-06-01T10:29:48;13.90;99.90
59855;DHT22;45732;52.850;6.896;2023-06-01T10:35:09;13.90;99.90
59855;DHT22;45732;52.850;6.896;2023-06-01T10:37:38;13.80;99.90
59855;DHT22;45732;52.850;6.896;2023-06-01T10:42:42;13.80;99.90
59855;DHT22;45732;52.850;6.896;2023-06-01T10:48:09;13.70;99.90
59855;DHT22;45732;52.850;6.896;2023-06-01T10:50:37;13.70;99.90
59855;DHT22;45732;52.850;6.896;2023-06-01T10:56:18;13.70;99.90
59855;DHT22;45732;52.850;6.896;2023-06-01T11:01:41;13.80;99.90
59855;DHT22;45732;52.850;6.896;2023-06-01T11:04:08;13.90;99.90
59855;DHT22;45732;52.850;6.896;2023-06-01T11:06:41;14.00;99.90
59855;DHT22;45732;52.850;6.896;2023-06-01T11:09:09;14.00;99.90
59855;DHT22;45732;52.850;6.896;2023-06-01T11:14:25;14.10;99.90
59855;DHT22;45732;52.850;6.896;2023-06-01T11:16:52;14.10;99.90
59855;DHT22;45732;52.850;6.896;2023-06-01T11:19:26;14.20;99.90
59855;DHT22;45732;52.850;6.896;2023-06-01T11:22:00;14.20;99.90
59855;DHT22;45732;52.850;6.896;2023-06-01T11:24:36;14.30;99.90
59855;DHT22;45732;52.850;6.896;2023-06-01T11:27:09;14.30;99.90
59855;DHT22;45732;52.850;6.896;2023-06-01T11:29:36;14.40;99.90
59855;DHT22;45732;52.850;6.896;2023-06-01T11:32:04;14.30;99.90
59855;DHT22;45732;52.850;6.896;2023-06-01T11:37:00;14.40;99.90
59855;DHT22;45732;52.850;6.896;2023-06-01T11:39:27;14.40;99.90
59855;DHT22;45732;52.850;6.896;2023-06-01T11:42:11;14.40;99.90
59855;DHT22;45732;52.850;6.896;2023-06-01T11:44:38;14.40;99.90
59855;DHT22;45732;52.850;6.896;2023-06-01T11:47:05;14.50;99.90
59855;DHT22;45732;52.850;6.896;2023-06-01T11:49:40;14.50;99.90
59855;DHT22;45732;52.850;6.896;2023-06-01T11:52:08;14.60;99.90
59855;DHT22;45732;52.850;6.896;2023-06-01T11:54:34;14.60;99.90
59855;DHT22;45732;52.850;6.896;2023-06-01T11:57:02;14.50;99.90
59855;DHT22;45732;52.850;6.896;2023-06-01T11:59:39;14.60;99.90
59855;DHT22;45732;52.850;6.896;2023-06-01T12:02:25;14.70;99.90
59855;DHT22;45732;52.850;6.896;2023-06-01T12:05:04;14.60;99.90
59855;DHT22;45732;52.850;6.896;2023-06-01T12:07:50;14.80;99.90
59855;DHT22;45732;52.850;6.896;2023-06-01T12:10:18;14.80;99.90
59855;DHT22;45732;52.850;6.896;2023-06-01T12:12:45;14.80;99.90
59855;DHT22;45732;52.850;6.896;2023-06-01T12:15:14;14.90;99.90
59855;DHT22;45732;52.850;6.896;2023-06-01T12:17:53;14.80;99.90
59855;DHT22;45732;52.850;6.896;2023-06-01T12:20:32;14.80;99.90
59855;DHT22;45732;52.850;6.896;2023-06-01T12:23:01;14.90;99.90
59855;DHT22;45732;52.850;6.896;2023-06-01T12:25:29;15.00;99.90
59855;DHT22;45732;52.850;6.896;2023-06-01T12:28:06;15.00;99.90
59855;DHT22;45732;52.850;6.896;2023-06-01T12:30:33;15.10;99.90
59855;DHT22;45732;52.850;6.896;2023-06-01T12:32:59;15.10;99.90
59855;DHT22;45732;52.850;6.896;2023-06-01T12:35:26;15.10;99.90
59855;DHT22;45732;52.850;6.896;2023-06-01T12:38:08;15.20;99.90
59855;DHT22;45732;52.850;6.896;2023-06-01T12:40:36;15.10;99.90
59855;DHT22;45732;52.850;6.896;2023-06-01T12:43:04;15.20;99.90
59855;DHT22;45732;52.850;6.896;2023-06-01T12:45:39;15.30;99.90
59855;DHT22;45732;52.850;6.896;2023-06-01T12:48:06;15.40;99.90
59855;DHT22;45732;52.850;6.896;2023-06-01T12:50:32;15.30;99.90
59855;DHT22;45732;52.850;6.896;2023-06-01T12:52:57;15.40;99.90
59855;DHT22;45732;52.850;6.896;2023-06-01T12:55:23;15.30;99.90
59855;DHT22;45732;52.850;6.896;2023-06-01T12:57:53;15.40;99.90
59855;DHT22;45732;52.850;6.896;2023-06-01T13:00:19;15.40;99.90
59855;DHT22;45732;52.850;6.896;2023-06-01T13:02:45;15.20;99.90
59855;DHT22;45732;52.850;6.896;2023-06-01T13:05:18;15.20;99.90
59855;DHT22;45732;52.850;6.896;2023-06-01T13:07:44;15.30;99.90
59855;DHT22;45732;52.850;6.896;2023-06-01T13:10:11;15.40;99.90
59855;DHT22;45732;52.850;6.896;2023-06-01T13:12:38;15.40;99.90
59855;DHT22;45732;52.850;6.896;2023-06-01T13:15:06;15.50;99.90
59855;DHT22;45732;52.850;6.896;2023-06-01T13:17:33;15.50;99.90
59855;DHT22;45732;52.850;6.896;2023-06-01T13:19:58;15.50;99.90
59855;DHT22;45732;52.850;6.896;2023-06-01T13:22:24;15.50;99.90
59855;DHT22;45732;52.850;6.896;2023-06-01T13:24:50;15.50;99.90
59855;DHT22;45732;52.850;6.896;2023-06-01T13:27:16;15.50;99.90
59855;DHT22;45732;52.850;6.896;2023-06-01T13:29:42;15.60;99.90
59855;DHT22;45732;52.850;6.896;2023-06-01T13:32:08;15.60;99.90
59855;DHT22;45732;52.850;6.896;2023-06-01T13:34:34;15.50;99.90
59855;DHT22;45732;52.850;6.896;2023-06-01T13:37:01;15.40;99.90
59855;DHT22;45732;52.850;6.896;2023-06-01T13:39:26;15.30;99.90
59855;DHT22;45732;52.850;6.896;2023-06-01T13:41:52;15.30;99.90
59855;DHT22;45732;52.850;6.896;2023-06-01T13:44:18;15.30;99.90
59855;DHT22;45732;52.850;6.896;2023-06-01T13:46:44;15.20;99.90
59855;DHT22;45732;52.850;6.896;2023-06-01T13:49:10;15.20;99.90
59855;DHT22;45732;52.850;6.896;2023-06-01T13:51:36;15.20;99.90
59855;DHT22;45732;52.850;6.896;2023-06-01T13:54:04;15.10;99.90
59855;DHT22;45732;52.850;6.896;2023-06-01T13:56:30;15.10;99.90
59855;DHT22;45732;52.850;6.896;2023-06-01T13:58:56;15.10;99.90
59855;DHT22;45732;52.850;6.896;2023-06-01T14:01:22;15.10;99.90
59855;DHT22;45732;52.850;6.896;2023-06-01T14:03:48;15.00;99.90
59855;DHT22;45732;52.850;6.896;2023-06-01T14:06:13;15.00;99.90
59855;DHT22;45732;52.850;6.896;2023-06-01T14:08:39;15.00;99.90
59855;DHT22;45732;52.850;6.896;2023-06-01T14:11:05;15.00;99.90
59855;DHT22;45732;52.850;6.896;2023-06-01T14:13:31;15.00;99.90
59855;DHT22;45732;52.850;6.896;2023-06-01T14:15:57;15.00;99.90
59855;DHT22;45732;52.850;6.896;2023-06-01T14:18:23;14.90;99.90
59855;DHT22;45732;52.850;6.896;2023-06-01T14:20:49;14.90;99.90
59855;DHT22;45732;52.850;6.896;2023-06-01T14:23:15;14.80;99.90
59855;DHT22;45732;52.850;6.896;2023-06-01T14:25:41;14.80;99.90
59855;DHT22;45732;52.850;6.896;2023-06-01T14:28:06;14.80;99.90
59855;DHT22;45732;52.850;6.896;2023-06-01T14:30:32;14.80;99.90
59855;DHT22;45732;52.850;6.896;2023-06-01T14:32:58;14.70;99.90
59855;DHT22;45732;52.850;6.896;2023-06-01T14:35:24;14.60;99.90
59855;DHT22;45732;52.850;6.896;2023-06-01T14:37:52;14.60;99.90
59855;DHT22;45732;52.850;6.896;2023-06-01T14:40:18;14.60;99.90
59855;DHT22;45732;52.850;6.896;2023-06-01T14:42:44;14.70;99.90
59855;DHT22;45732;52.850;6.896;2023-06-01T14:45:10;14.70;99.90
59855;DHT22;45732;52.850;6.896;2023-06-01T14:47:39;14.70;99.90
59855;DHT22;45732;52.850;6.896;2023-06-01T14:50:08;14.60;99.90
59855;DHT22;45732;52.850;6.896;2023-06-01T14:52:34;14.60;99.90
59855;DHT22;45732;52.850;6.896;2023-06-01T14:55:00;14.60;99.90
59855;DHT22;45732;52.850;6.896;2023-06-01T14:57:25;14.60;99.90
59855;DHT22;45732;52.850;6.896;2023-06-01T14:59:51;14.50;99.90
59855;DHT22;45732;52.850;6.896;2023-06-01T15:02:17;14.60;99.90
59855;DHT22;45732;52.850;6.896;2023-06-01T15:04:44;14.60;99.90
59855;DHT22;45732;52.850;6.896;2023-06-01T15:07:10;14.60;99.90
59855;DHT22;45732;52.850;6.896;2023-06-01T15:09:36;14.60;99.90
59855;DHT22;45732;52.850;6.896;2023-06-01T15:12:02;14.50;99.90
59855;DHT22;45732;52.850;6.896;2023-06-01T15:14:28;14.50;99.90
59855;DHT22;45732;52.850;6.896;2023-06-01T15:16:54;14.60;99.90
59855;DHT22;45732;52.850;6.896;2023-06-01T15:19:20;14.60;99.90
59855;DHT22;45732;52.850;6.896;2023-06-01T15:21:45;14.60;99.90
59855;DHT22;45732;52.850;6.896;2023-06-01T15:24:11;14.60;99.90
59855;DHT22;45732;52.850;6.896;2023-06-01T15:26:37;14.60;99.90
59855;DHT22;45732;52.850;6.896;2023-06-01T15:29:02;14.60;99.90
59855;DHT22;45732;52.850;6.896;2023-06-01T15:31:28;14.60;99.90
59855;DHT22;45732;52.850;6.896;2023-06-01T15:33:54;14.60;99.90
59855;DHT22;45732;52.850;6.896;2023-06-01T15:36:20;14.60;99.90
59855;DHT22;45732;52.850;6.896;2023-06-01T15:38:45;14.60;99.90
59855;DHT22;45732;52.850;6.896;2023-06-01T15:41:11;14.60;99.90
59855;DHT22;45732;52.850;6.896;2023-06-01T15:43:37;14.60;99.90
59855;DHT22;45732;52.850;6.896;2023-06-01T15:46:03;14.60;99.90
59855;DHT22;45732;52.850;6.896;2023-06-01T15:48:29;14.70;99.90
59855;DHT22;45732;52.850;6.896;2023-06-01T15:50:55;14.70;99.90
59855;DHT22;45732;52.850;6.896;2023-06-01T15:53:21;14.70;99.90
59855;DHT22;45732;52.850;6.896;2023-06-01T15:55:46;14.60;99.90
59855;DHT22;45732;52.850;6.896;2023-06-01T15:58:13;14.70;99.90
59855;DHT22;45732;52.850;6.896;2023-06-01T16:00:38;14.60;99.90